sensor_id;sensor_type;location;lat;lon;timestamp;pressure;altitude;pressure_sealevel;temperature;humidity
25947;BME280;13745;51.470;9.894;2022-12-15T00:01:14;98284.06;;;-3.94;58.23
25947;BME280;13745;51.470;9.894;2022-12-15T00:04:17;98288.31;;;-3.93;58.16
25947;BME280;13745;51.470;9.894;2022-12-15T00:07:22;98296.81;;;-3.91;58.43
25947;BME280;13745;51.470;9.894;2022-12-15T00:10:25;98286.25;;;-3.91;58.46
25947;BME280;13745;51.470;9.894;2022-12-15T00:13:29;98300.03;;;-3.89;58.34
25947;BME280;13745;51.470;9.894;2022-12-15T00:16:32;98305.31;;;-3.89;57.73
25947;BME280;13745;51.470;9.894;2022-12-15T00:19:36;98298.19;;;-3.88;58.44
25947;BME280;13745;51.470;9.894;2022-12-15T00:22:41;98292.22;;;-3.84;58.11
25947;BME280;13745;51.470;9.894;2022-12-15T00:25:44;98300.25;;;-3.79;58.53
25947;BME280;13745;51.470;9.894;2022-12-15T00:28:47;98306.91;;;-3.77;57.72
25947;BME280;13745;51.470;9.894;2022-12-15T00:31:51;98309.22;;;-3.80;58.00
25947;BME280;13745;51.470;9.894;2022-12-15T00:34:54;98304.06;;;-3.86;57.79
25947;BME280;13745;51.470;9.894;2022-12-15T00:37:59;98311.06;;;-3.92;57.86
25947;BME280;13745;51.470;9.894;2022-12-15T00:41:08;98317.03;;;-3.96;58.45
25947;BME280;13745;51.470;9.894;2022-12-15T00:43:54;98329.09;;;-4.00;58.21
25947;BME280;13745;51.470;9.894;2022-12-15T00:46:39;98329.09;;;-4.00;58.38
25947;BME280;13745;51.470;9.894;2022-12-15T00:49:39;98334.03;;;-4.03;58.56
25947;BME280;13745;51.470;9.894;2022-12-15T00:52:43;98336.78;;;-4.10;58.29
25947;BME280;13745;51.470;9.894;2022-12-15T00:55:47;98339.44;;;-4.10;58.00
25947;BME280;13745;51.470;9.894;2022-12-15T00:58:51;98334.25;;;-4.05;58.09
25947;BME280;13745;51.470;9.894;2022-12-15T01:01:55;98328.31;;;-4.01;58.35
25947;BME280;13745;51.470;9.894;2022-12-15T01:04:58;98335.06;;;-3.93;58.67
25947;BME280;13745;51.470;9.894;2022-12-15T01:08:02;98341.84;;;-3.86;58.14
25947;BME280;13745;51.470;9.894;2022-12-15T01:11:06;98337.25;;;-3.79;58.77
25947;BME280;13745;51.470;9.894;2022-12-15T01:14:10;98344.25;;;-3.73;58.27
25947;BME280;13745;51.470;9.894;2022-12-15T01:17:13;98345.16;;;-3.68;58.59
25947;BME280;13745;51.470;9.894;2022-12-15T01:20:17;98343.09;;;-3.66;58.04
25947;BME280;13745;51.470;9.894;2022-12-15T01:23:03;98352.84;;;-3.66;58.60
25947;BME280;13745;51.470;9.894;2022-12-15T01:25:49;98353.78;;;-3.72;58.79
25947;BME280;13745;51.470;9.894;2022-12-15T01:28:37;98356.44;;;-3.72;58.22
25947;BME280;13745;51.470;9.894;2022-12-15T01:31:22;98361.03;;;-3.68;58.21
25947;BME280;13745;51.470;9.894;2022-12-15T01:34:08;98361.34;;;-3.64;58.99
25947;BME280;13745;51.470;9.894;2022-12-15T01:36:54;98363.78;;;-3.63;59.02
25947;BME280;13745;51.470;9.894;2022-12-15T01:39:40;98360.56;;;-3.65;58.25
25947;BME280;13745;51.470;9.894;2022-12-15T01:42:43;98360.69;;;-3.71;58.70
25947;BME280;13745;51.470;9.894;2022-12-15T01:45:51;98349.88;;;-3.81;58.60
25947;BME280;13745;51.470;9.894;2022-12-15T01:48:40;98357.56;;;-3.80;58.48
25947;BME280;13745;51.470;9.894;2022-12-15T01:51:30;98356.31;;;-3.77;58.92
25947;BME280;13745;51.470;9.894;2022-12-15T01:54:19;98359.56;;;-3.75;59.12
25947;BME280;13745;51.470;9.894;2022-12-15T01:57:08;98359.06;;;-3.72;58.69
25947;BME280;13745;51.470;9.894;2022-12-15T01:59:59;98357.81;;;-3.70;59.23
25947;BME280;13745;51.470;9.894;2022-12-15T02:02:47;98365.84;;;-3.65;59.06
25947;BME280;13745;51.470;9.894;2022-12-15T02:05:34;98378.81;;;-3.63;59.15
25947;BME280;13745;51.470;9.894;2022-12-15T02:08:20;98378.38;;;-3.60;58.92
25947;BME280;13745;51.470;9.894;2022-12-15T02:15:01;98404.91;;;-3.56;59.21
25947;BME280;13745;51.470;9.894;2022-12-15T02:17:58;98397.31;;;-3.52;59.05
25947;BME280;13745;51.470;9.894;2022-12-15T02:20:51;98402.16;;;-3.49;59.51
25947;BME280;13745;51.470;9.894;2022-12-15T02:23:55;98400.09;;;-3.47;59.19
25947;BME280;13745;51.470;9.894;2022-12-15T02:27:21;98411.00;;;-3.44;59.52
25947;BME280;13745;51.470;9.894;2022-12-15T02:30:40;98405.25;;;-3.41;59.05
25947;BME280;13745;51.470;9.894;2022-12-15T02:33:28;98403.66;;;-3.42;59.32
25947;BME280;13745;51.470;9.894;2022-12-15T02:36:22;98407.44;;;-3.38;59.08
25947;BME280;13745;51.470;9.894;2022-12-15T02:39:11;98408.03;;;-3.36;59.47
25947;BME280;13745;51.470;9.894;2022-12-15T02:41:57;98418.59;;;-3.36;59.50
25947;BME280;13745;51.470;9.894;2022-12-15T02:44:45;98414.91;;;-3.35;59.62
25947;BME280;13745;51.470;9.894;2022-12-15T02:47:38;98414.44;;;-3.32;59.64
25947;BME280;13745;51.470;9.894;2022-12-15T02:50:40;98418.47;;;-3.30;59.48
25947;BME280;13745;51.470;9.894;2022-12-15T02:53:44;98424.09;;;-3.26;59.43
25947;BME280;13745;51.470;9.894;2022-12-15T02:56:42;98414.69;;;-3.22;59.72
25947;BME280;13745;51.470;9.894;2022-12-15T02:59:36;98426.38;;;-3.18;59.52
25947;BME280;13745;51.470;9.894;2022-12-15T03:02:26;98431.22;;;-3.15;59.56
25947;BME280;13745;51.470;9.894;2022-12-15T03:05:16;98432.00;;;-3.15;59.86
25947;BME280;13745;51.470;9.894;2022-12-15T03:08:02;98427.88;;;-3.11;59.49
25947;BME280;13745;51.470;9.894;2022-12-15T03:10:48;98432.47;;;-3.07;59.68
25947;BME280;13745;51.470;9.894;2022-12-15T03:13:35;98432.00;;;-3.04;59.51
25947;BME280;13745;51.470;9.894;2022-12-15T03:16:21;98438.09;;;-3.03;59.69
25947;BME280;13745;51.470;9.894;2022-12-15T03:19:07;98443.63;;;-3.05;59.80
25947;BME280;13745;51.470;9.894;2022-12-15T03:21:54;98442.03;;;-3.17;59.68
25947;BME280;13745;51.470;9.894;2022-12-15T03:24:39;98448.94;;;-3.27;59.80
25947;BME280;13745;51.470;9.894;2022-12-15T03:27:25;98448.94;;;-3.27;59.53
25947;BME280;13745;51.470;9.894;2022-12-15T03:30:12;98450.66;;;-3.21;60.04
25947;BME280;13745;51.470;9.894;2022-12-15T03:32:58;98458.69;;;-3.16;59.88
25947;BME280;13745;51.470;9.894;2022-12-15T03:35:44;98456.19;;;-3.12;59.73
25947;BME280;13745;51.470;9.894;2022-12-15T03:38:31;98459.97;;;-3.08;59.69
25947;BME280;13745;51.470;9.894;2022-12-15T03:41:17;98461.56;;;-3.07;59.87
25947;BME280;13745;51.470;9.894;2022-12-15T03:44:03;98458.81;;;-3.12;59.46
25947;BME280;13745;51.470;9.894;2022-12-15T03:46:49;98467.56;;;-3.22;59.70
25947;BME280;13745;51.470;9.894;2022-12-15T03:49:34;98465.16;;;-3.35;59.79
25947;BME280;13745;51.470;9.894;2022-12-15T03:52:20;98470.22;;;-3.45;59.96
25947;BME280;13745;51.470;9.894;2022-12-15T03:55:09;98461.13;;;-3.49;59.82
25947;BME280;13745;51.470;9.894;2022-12-15T03:57:55;98461.56;;;-3.52;59.66
25947;BME280;13745;51.470;9.894;2022-12-15T04:00:40;98468.47;;;-3.51;59.50
25947;BME280;13745;51.470;9.894;2022-12-15T04:03:26;98464.00;;;-3.50;59.59
25947;BME280;13745;51.470;9.894;2022-12-15T04:06:13;98472.50;;;-3.48;60.05
25947;BME280;13745;51.470;9.894;2022-12-15T04:08:59;98483.31;;;-3.50;60.12
25947;BME280;13745;51.470;9.894;2022-12-15T04:11:46;98491.59;;;-3.46;59.57
25947;BME280;13745;51.470;9.894;2022-12-15T04:14:32;98499.28;;;-3.45;59.82
25947;BME280;13745;51.470;9.894;2022-12-15T04:17:17;98498.81;;;-3.42;59.68
25947;BME280;13745;51.470;9.894;2022-12-15T04:20:05;98492.06;;;-3.38;60.19
25947;BME280;13745;51.470;9.894;2022-12-15T04:22:53;98492.63;;;-3.36;59.78
25947;BME280;13745;51.470;9.894;2022-12-15T04:25:39;98500.34;;;-3.35;60.11
25947;BME280;13745;51.470;9.894;2022-12-15T04:28:44;98495.53;;;-3.37;60.07
25947;BME280;13745;51.470;9.894;2022-12-15T04:31:47;98497.78;;;-3.41;60.21
25947;BME280;13745;51.470;9.894;2022-12-15T04:34:50;98502.97;;;-3.46;60.29
25947;BME280;13745;51.470;9.894;2022-12-15T04:37:54;98506.66;;;-3.47;60.11
25947;BME280;13745;51.470;9.894;2022-12-15T04:40:59;98512.50;;;-3.45;60.20
25947;BME280;13745;51.470;9.894;2022-12-15T04:44:04;98531.03;;;-3.45;60.31
25947;BME280;13745;51.470;9.894;2022-12-15T04:47:08;98524.59;;;-3.49;59.86
25947;BME280;13745;51.470;9.894;2022-12-15T04:50:11;98526.75;;;-3.57;59.98
25947;BME280;13745;51.470;9.894;2022-12-15T04:53:16;98525.69;;;-3.67;59.76
25947;BME280;13745;51.470;9.894;2022-12-15T04:56:20;98519.09;;;-3.76;59.94
25947;BME280;13745;51.470;9.894;2022-12-15T04:59:25;98513.44;;;-3.91;60.50
25947;BME280;13745;51.470;9.894;2022-12-15T05:02:28;98520.34;;;-3.90;60.62
25947;BME280;13745;51.470;9.894;2022-12-15T05:05:32;98520.72;;;-3.86;59.94
25947;BME280;13745;51.470;9.894;2022-12-15T05:08:36;98519.69;;;-3.85;59.81
25947;BME280;13745;51.470;9.894;2022-12-15T05:11:40;98538.53;;;-3.82;59.75
25947;BME280;13745;51.470;9.894;2022-12-15T05:14:44;98532.19;;;-3.81;60.33
25947;BME280;13745;51.470;9.894;2022-12-15T05:17:48;98530.13;;;-3.79;59.83
25947;BME280;13745;51.470;9.894;2022-12-15T05:20:51;98538.06;;;-3.79;60.56
25947;BME280;13745;51.470;9.894;2022-12-15T05:23:54;98546.44;;;-3.82;60.17
25947;BME280;13745;51.470;9.894;2022-12-15T05:26:58;98545.16;;;-3.91;60.24
25947;BME280;13745;51.470;9.894;2022-12-15T05:30:03;98548.78;;;-4.03;60.09
25947;BME280;13745;51.470;9.894;2022-12-15T05:33:07;98554.47;;;-4.17;59.66
25947;BME280;13745;51.470;9.894;2022-12-15T05:35:55;98544.88;;;-4.29;59.69
25947;BME280;13745;51.470;9.894;2022-12-15T05:38:40;98548.63;;;-4.37;60.19
25947;BME280;13745;51.470;9.894;2022-12-15T05:41:26;98540.09;;;-4.39;60.31
25947;BME280;13745;51.470;9.894;2022-12-15T05:44:12;98560.34;;;-4.33;59.77
25947;BME280;13745;51.470;9.894;2022-12-15T05:46:59;98565.75;;;-4.28;59.92
25947;BME280;13745;51.470;9.894;2022-12-15T05:49:45;98571.22;;;-4.23;59.84
25947;BME280;13745;51.470;9.894;2022-12-15T05:52:31;98573.97;;;-4.18;59.73
25947;BME280;13745;51.470;9.894;2022-12-15T05:55:17;98582.47;;;-4.16;59.52
25947;BME280;13745;51.470;9.894;2022-12-15T05:58:03;98588.22;;;-4.19;60.26
25947;BME280;13745;51.470;9.894;2022-12-15T06:00:48;98579.72;;;-4.21;60.39
25947;BME280;13745;51.470;9.894;2022-12-15T06:03:35;98588.22;;;-4.19;59.70
25947;BME280;13745;51.470;9.894;2022-12-15T06:06:21;98590.63;;;-4.18;60.50
25947;BME280;13745;51.470;9.894;2022-12-15T06:09:08;98582.69;;;-4.18;59.70
25947;BME280;13745;51.470;9.894;2022-12-15T06:11:53;98582.47;;;-4.16;60.18
25947;BME280;13745;51.470;9.894;2022-12-15T06:14:39;98585.34;;;-4.18;59.64
25947;BME280;13745;51.470;9.894;2022-12-15T06:17:25;98601.63;;;-4.21;60.53
25947;BME280;13745;51.470;9.894;2022-12-15T06:20:12;98586.81;;;-4.22;60.57
25947;BME280;13745;51.470;9.894;2022-12-15T06:22:58;98597.50;;;-4.17;60.01
25947;BME280;13745;51.470;9.894;2022-12-15T06:25:44;98603.59;;;-4.16;59.97
25947;BME280;13745;51.470;9.894;2022-12-15T06:28:29;98606.63;;;-4.13;59.91
25947;BME280;13745;51.470;9.894;2022-12-15T06:31:19;98602.34;;;-4.14;60.12
25947;BME280;13745;51.470;9.894;2022-12-15T06:34:08;98600.38;;;-4.18;60.19
25947;BME280;13745;51.470;9.894;2022-12-15T06:36:56;98609.34;;;-4.19;60.04
25947;BME280;13745;51.470;9.894;2022-12-15T06:39:42;98610.59;;;-4.22;60.33
25947;BME280;13745;51.470;9.894;2022-12-15T06:42:28;98616.31;;;-4.24;60.29
25947;BME280;13745;51.470;9.894;2022-12-15T06:45:14;98625.28;;;-4.25;60.25
25947;BME280;13745;51.470;9.894;2022-12-15T06:47:59;98623.84;;;-4.28;60.47
25947;BME280;13745;51.470;9.894;2022-12-15T06:50:45;98626.34;;;-4.33;59.77
25947;BME280;13745;51.470;9.894;2022-12-15T06:53:35;98627.38;;;-4.34;60.25
25947;BME280;13745;51.470;9.894;2022-12-15T06:56:23;98621.53;;;-4.36;60.03
25947;BME280;13745;51.470;9.894;2022-12-15T06:59:09;98624.59;;;-4.39;59.67
25947;BME280;13745;51.470;9.894;2022-12-15T07:01:55;98628.91;;;-4.44;59.60
25947;BME280;13745;51.470;9.894;2022-12-15T07:04:42;98642.91;;;-4.44;59.76
25947;BME280;13745;51.470;9.894;2022-12-15T07:07:27;98638.66;;;-4.45;59.92
25947;BME280;13745;51.470;9.894;2022-12-15T07:10:15;98643.38;;;-4.47;59.75
25947;BME280;13745;51.470;9.894;2022-12-15T07:13:01;98646.22;;;-4.48;60.00
25947;BME280;13745;51.470;9.894;2022-12-15T07:15:46;98643.81;;;-4.49;60.42
25947;BME280;13745;51.470;9.894;2022-12-15T07:18:33;98644.75;;;-4.62;59.70
25947;BME280;13745;51.470;9.894;2022-12-15T07:21:19;98648.47;;;-4.69;59.93
25947;BME280;13745;51.470;9.894;2022-12-15T07:24:05;98661.06;;;-4.71;59.96
25947;BME280;13745;51.470;9.894;2022-12-15T07:26:52;98655.34;;;-4.68;60.69
25947;BME280;13745;51.470;9.894;2022-12-15T07:29:38;98662.81;;;-4.65;60.07
25947;BME280;13745;51.470;9.894;2022-12-15T07:32:24;98672.16;;;-4.63;59.96
25947;BME280;13745;51.470;9.894;2022-12-15T07:35:10;98677.44;;;-4.63;60.56
25947;BME280;13745;51.470;9.894;2022-12-15T07:37:56;98673.16;;;-4.64;59.67
25947;BME280;13745;51.470;9.894;2022-12-15T07:40:42;98673.16;;;-4.64;59.74
25947;BME280;13745;51.470;9.894;2022-12-15T07:43:30;98671.38;;;-4.63;59.92
25947;BME280;13745;51.470;9.894;2022-12-15T07:46:16;98666.88;;;-4.63;60.49
25947;BME280;13745;51.470;9.894;2022-12-15T07:49:02;98679.41;;;-4.58;60.18
25947;BME280;13745;51.470;9.894;2022-12-15T07:51:48;98678.41;;;-4.57;59.56
25947;BME280;13745;51.470;9.894;2022-12-15T07:54:33;98676.34;;;-4.55;59.74
25947;BME280;13745;51.470;9.894;2022-12-15T07:57:19;98686.91;;;-4.55;59.96
25947;BME280;13745;51.470;9.894;2022-12-15T08:00:08;98686.44;;;-4.52;60.37
25947;BME280;13745;51.470;9.894;2022-12-15T08:02:59;98684.44;;;-4.50;59.80
25947;BME280;13745;51.470;9.894;2022-12-15T08:05:45;98690.72;;;-4.51;60.37
25947;BME280;13745;51.470;9.894;2022-12-15T08:08:32;98694.78;;;-4.49;60.34
25947;BME280;13745;51.470;9.894;2022-12-15T08:11:19;98695.72;;;-4.44;59.64
25947;BME280;13745;51.470;9.894;2022-12-15T08:14:05;98704.97;;;-4.35;59.38
25947;BME280;13745;51.470;9.894;2022-12-15T08:16:52;98703.88;;;-4.27;59.23
25947;BME280;13745;51.470;9.894;2022-12-15T08:19:38;98702.66;;;-4.25;59.22
25947;BME280;13745;51.470;9.894;2022-12-15T08:22:24;98704.84;;;-4.22;59.63
25947;BME280;13745;51.470;9.894;2022-12-15T08:25:09;98710.50;;;-4.19;59.73
25947;BME280;13745;51.470;9.894;2022-12-15T08:27:55;98706.75;;;-4.11;59.54
25947;BME280;13745;51.470;9.894;2022-12-15T08:30:41;98706.69;;;-4.05;59.77
25947;BME280;13745;51.470;9.894;2022-12-15T08:33:28;98710.28;;;-4.00;58.99
25947;BME280;13745;51.470;9.894;2022-12-15T08:36:17;98713.44;;;-3.91;59.28
25947;BME280;13745;51.470;9.894;2022-12-15T08:39:03;98714.81;;;-3.89;59.68
25947;BME280;13745;51.470;9.894;2022-12-15T08:41:48;98719.50;;;-3.91;58.93
25947;BME280;13745;51.470;9.894;2022-12-15T08:44:34;98716.00;;;-3.85;59.54
25947;BME280;13745;51.470;9.894;2022-12-15T08:47:20;98726.88;;;-3.75;59.19
25947;BME280;13745;51.470;9.894;2022-12-15T08:50:07;98738.75;;;-3.66;59.25
25947;BME280;13745;51.470;9.894;2022-12-15T08:52:53;98725.69;;;-3.61;58.60
25947;BME280;13745;51.470;9.894;2022-12-15T08:55:39;98728.47;;;-3.57;59.25
25947;BME280;13745;51.470;9.894;2022-12-15T08:58:25;98718.63;;;-3.50;58.68
25947;BME280;13745;51.470;9.894;2022-12-15T09:01:12;98723.00;;;-3.44;59.12
25947;BME280;13745;51.470;9.894;2022-12-15T09:04:02;98724.16;;;-3.40;58.78
25947;BME280;13745;51.470;9.894;2022-12-15T09:06:49;98728.56;;;-3.34;58.83
25947;BME280;13745;51.470;9.894;2022-12-15T09:09:35;98729.28;;;-3.27;58.86
25947;BME280;13745;51.470;9.894;2022-12-15T09:12:21;98734.50;;;-3.21;58.50
25947;BME280;13745;51.470;9.894;2022-12-15T09:15:07;98734.19;;;-3.13;58.75
25947;BME280;13745;51.470;9.894;2022-12-15T09:17:53;98743.03;;;-3.08;58.31
25947;BME280;13745;51.470;9.894;2022-12-15T09:20:39;98751.09;;;-3.03;58.37
25947;BME280;13745;51.470;9.894;2022-12-15T09:23:26;98743.78;;;-2.90;58.66
25947;BME280;13745;51.470;9.894;2022-12-15T09:26:13;98743.31;;;-2.46;58.38
25947;BME280;13745;51.470;9.894;2022-12-15T09:28:59;98746.09;;;-2.08;58.40
25947;BME280;13745;51.470;9.894;2022-12-15T09:31:45;98752.59;;;-1.15;58.01
25947;BME280;13745;51.470;9.894;2022-12-15T09:34:30;98752.81;;;2.71;51.33
25947;BME280;13745;51.470;9.894;2022-12-15T09:37:16;98764.94;;;5.56;45.24
25947;BME280;13745;51.470;9.894;2022-12-15T09:40:05;98762.75;;;4.04;48.21
25947;BME280;13745;51.470;9.894;2022-12-15T09:42:52;98766.88;;;3.12;51.72
25947;BME280;13745;51.470;9.894;2022-12-15T09:45:40;98764.59;;;2.70;53.23
25947;BME280;13745;51.470;9.894;2022-12-15T09:48:32;98763.50;;;2.71;54.20
25947;BME280;13745;51.470;9.894;2022-12-15T09:51:28;98763.09;;;2.89;54.50
25947;BME280;13745;51.470;9.894;2022-12-15T09:54:19;98769.63;;;3.32;54.84
25947;BME280;13745;51.470;9.894;2022-12-15T09:57:15;98775.63;;;4.02;55.25
25947;BME280;13745;51.470;9.894;2022-12-15T10:00:18;98777.47;;;8.59;47.39
25947;BME280;13745;51.470;9.894;2022-12-15T10:03:28;98776.59;;;13.56;39.19
25947;BME280;13745;51.470;9.894;2022-12-15T10:06:19;98794.38;;;16.43;35.34
25947;BME280;13745;51.470;9.894;2022-12-15T10:09:15;98793.81;;;18.10;32.99
25947;BME280;13745;51.470;9.894;2022-12-15T10:12:06;98796.25;;;19.23;31.98
25947;BME280;13745;51.470;9.894;2022-12-15T10:15:06;98792.69;;;19.85;31.12
25947;BME280;13745;51.470;9.894;2022-12-15T10:17:59;98792.50;;;19.74;31.95
25947;BME280;13745;51.470;9.894;2022-12-15T10:20:47;98791.13;;;20.92;30.71
25947;BME280;13745;51.470;9.894;2022-12-15T10:23:34;98794.78;;;22.21;28.91
25947;BME280;13745;51.470;9.894;2022-12-15T10:26:22;98792.16;;;23.25;27.65
25947;BME280;13745;51.470;9.894;2022-12-15T10:29:21;98797.81;;;23.86;26.12
25947;BME280;13745;51.470;9.894;2022-12-15T10:32:16;98794.59;;;24.73;25.12
25947;BME280;13745;51.470;9.894;2022-12-15T10:35:06;98788.09;;;25.17;24.82
25947;BME280;13745;51.470;9.894;2022-12-15T10:37:54;98795.94;;;25.36;24.56
25947;BME280;13745;51.470;9.894;2022-12-15T10:40:44;98792.00;;;25.23;24.39
25947;BME280;13745;51.470;9.894;2022-12-15T10:43:33;98784.00;;;24.14;24.86
25947;BME280;13745;51.470;9.894;2022-12-15T10:46:22;98786.28;;;22.46;26.71
25947;BME280;13745;51.470;9.894;2022-12-15T10:49:22;98785.03;;;21.91;27.09
25947;BME280;13745;51.470;9.894;2022-12-15T10:52:18;98779.75;;;22.15;27.11
25947;BME280;13745;51.470;9.894;2022-12-15T10:55:30;98784.44;;;22.07;27.04
25947;BME280;13745;51.470;9.894;2022-12-15T10:58:18;98788.63;;;22.47;27.08
25947;BME280;13745;51.470;9.894;2022-12-15T11:01:06;98781.38;;;22.19;27.00
25947;BME280;13745;51.470;9.894;2022-12-15T11:03:53;98781.22;;;23.59;25.56
25947;BME280;13745;51.470;9.894;2022-12-15T11:06:41;98783.22;;;24.10;23.89
25947;BME280;13745;51.470;9.894;2022-12-15T11:09:31;98770.03;;;22.31;25.18
25947;BME280;13745;51.470;9.894;2022-12-15T11:12:19;98775.22;;;20.79;26.92
25947;BME280;13745;51.470;9.894;2022-12-15T11:15:37;98773.06;;;18.27;28.85
25947;BME280;13745;51.470;9.894;2022-12-15T11:18:28;98779.00;;;17.20;30.63
25947;BME280;13745;51.470;9.894;2022-12-15T11:21:20;98769.88;;;16.47;31.32
25947;BME280;13745;51.470;9.894;2022-12-15T11:24:11;98763.50;;;16.43;31.42
25947;BME280;13745;51.470;9.894;2022-12-15T11:27:05;98760.91;;;17.30;30.47
25947;BME280;13745;51.470;9.894;2022-12-15T11:30:00;98747.59;;;18.64;28.53
25947;BME280;13745;51.470;9.894;2022-12-15T11:32:49;98747.56;;;17.44;29.67
25947;BME280;13745;51.470;9.894;2022-12-15T11:35:51;98754.28;;;17.16;29.93
25947;BME280;13745;51.470;9.894;2022-12-15T11:38:44;98756.84;;;18.38;28.61
25947;BME280;13745;51.470;9.894;2022-12-15T11:41:37;98747.28;;;17.94;28.53
25947;BME280;13745;51.470;9.894;2022-12-15T11:44:34;98761.34;;;16.63;29.84
25947;BME280;13745;51.470;9.894;2022-12-15T11:47:29;98757.69;;;16.06;30.09
25947;BME280;13745;51.470;9.894;2022-12-15T11:50:26;98756.56;;;15.48;30.45
25947;BME280;13745;51.470;9.894;2022-12-15T11:53:21;98752.22;;;15.12;30.69
25947;BME280;13745;51.470;9.894;2022-12-15T11:56:16;98760.53;;;15.27;30.23
25947;BME280;13745;51.470;9.894;2022-12-15T12:02:50;98760.19;;;17.79;29.06
25947;BME280;13745;51.470;9.894;2022-12-15T12:06:06;98753.94;;;19.93;26.98
25947;BME280;13745;51.470;9.894;2022-12-15T12:09:03;98758.19;;;19.43;27.76
25947;BME280;13745;51.470;9.894;2022-12-15T12:11:54;98749.66;;;18.30;29.17
25947;BME280;13745;51.470;9.894;2022-12-15T12:14:53;98741.97;;;19.35;28.23
25947;BME280;13745;51.470;9.894;2022-12-15T12:17:45;98753.75;;;20.59;26.78
25947;BME280;13745;51.470;9.894;2022-12-15T12:20:40;98753.47;;;21.39;25.84
25947;BME280;13745;51.470;9.894;2022-12-15T12:23:33;98740.56;;;21.92;25.37
25947;BME280;13745;51.470;9.894;2022-12-15T12:26:24;98745.38;;;22.02;25.24
25947;BME280;13745;51.470;9.894;2022-12-15T12:29:15;98746.97;;;21.57;25.29
25947;BME280;13745;51.470;9.894;2022-12-15T12:32:06;98738.34;;;20.87;25.68
25947;BME280;13745;51.470;9.894;2022-12-15T12:35:02;98732.47;;;20.02;25.87
25947;BME280;13745;51.470;9.894;2022-12-15T12:37:55;98731.28;;;19.30;26.59
25947;BME280;13745;51.470;9.894;2022-12-15T12:40:51;98731.47;;;18.59;26.70
25947;BME280;13745;51.470;9.894;2022-12-15T12:43:42;98727.94;;;17.72;27.44
25947;BME280;13745;51.470;9.894;2022-12-15T12:46:32;98735.56;;;17.18;27.87
25947;BME280;13745;51.470;9.894;2022-12-15T12:49:25;98730.19;;;16.53;28.12
25947;BME280;13745;51.470;9.894;2022-12-15T12:52:20;98725.16;;;15.77;28.83
25947;BME280;13745;51.470;9.894;2022-12-15T12:55:23;98721.59;;;14.83;29.44
25947;BME280;13745;51.470;9.894;2022-12-15T12:58:32;98721.06;;;14.06;30.01
25947;BME280;13745;51.470;9.894;2022-12-15T13:01:24;98718.22;;;13.74;30.80
25947;BME280;13745;51.470;9.894;2022-12-15T13:04:11;98716.75;;;13.56;30.83
25947;BME280;13745;51.470;9.894;2022-12-15T13:07:00;98714.47;;;13.38;30.73
25947;BME280;13745;51.470;9.894;2022-12-15T13:10:01;98718.84;;;13.31;30.63
25947;BME280;13745;51.470;9.894;2022-12-15T13:12:48;98706.06;;;13.23;30.93
25947;BME280;13745;51.470;9.894;2022-12-15T13:15:38;98700.53;;;13.40;30.75
25947;BME280;13745;51.470;9.894;2022-12-15T13:18:26;98702.88;;;13.49;30.74
25947;BME280;13745;51.470;9.894;2022-12-15T13:21:46;98695.38;;;13.46;30.21
25947;BME280;13745;51.470;9.894;2022-12-15T13:24:40;98695.84;;;13.20;30.66
25947;BME280;13745;51.470;9.894;2022-12-15T13:27:35;98692.56;;;13.06;30.57
25947;BME280;13745;51.470;9.894;2022-12-15T13:30:21;98693.34;;;12.62;31.03
25947;BME280;13745;51.470;9.894;2022-12-15T13:33:13;98691.69;;;12.24;31.17
25947;BME280;13745;51.470;9.894;2022-12-15T13:36:00;98693.63;;;11.82;31.78
25947;BME280;13745;51.470;9.894;2022-12-15T13:38:55;98689.38;;;11.26;32.09
25947;BME280;13745;51.470;9.894;2022-12-15T13:41:41;98691.78;;;10.51;32.72
25947;BME280;13745;51.470;9.894;2022-12-15T13:44:31;98686.66;;;9.90;33.13
25947;BME280;13745;51.470;9.894;2022-12-15T13:47:22;98689.13;;;9.17;33.88
25947;BME280;13745;51.470;9.894;2022-12-15T13:50:12;98698.53;;;8.41;34.63
25947;BME280;13745;51.470;9.894;2022-12-15T13:53:02;98696.81;;;7.82;34.98
25947;BME280;13745;51.470;9.894;2022-12-15T13:55:54;98691.28;;;7.19;35.83
25947;BME280;13745;51.470;9.894;2022-12-15T13:58:42;98694.72;;;6.61;36.71
25947;BME280;13745;51.470;9.894;2022-12-15T14:01:30;98690.94;;;6.16;36.69
25947;BME280;13745;51.470;9.894;2022-12-15T14:04:16;98690.78;;;5.70;37.17
25947;BME280;13745;51.470;9.894;2022-12-15T14:07:02;98699.38;;;5.29;37.61
25947;BME280;13745;51.470;9.894;2022-12-15T14:09:50;98699.59;;;4.90;38.17
25947;BME280;13745;51.470;9.894;2022-12-15T14:12:38;98699.16;;;4.64;38.31
25947;BME280;13745;51.470;9.894;2022-12-15T14:15:26;98698.44;;;4.34;38.97
25947;BME280;13745;51.470;9.894;2022-12-15T14:18:24;98705.22;;;4.02;39.48
25947;BME280;13745;51.470;9.894;2022-12-15T14:21:18;98698.00;;;3.78;39.48
25947;BME280;13745;51.470;9.894;2022-12-15T14:24:18;98690.50;;;3.56;39.80
25947;BME280;13745;51.470;9.894;2022-12-15T14:27:06;98689.41;;;3.37;39.98
25947;BME280;13745;51.470;9.894;2022-12-15T14:30:19;98689.38;;;3.17;40.38
25947;BME280;13745;51.470;9.894;2022-12-15T14:33:10;98688.00;;;2.95;40.78
25947;BME280;13745;51.470;9.894;2022-12-15T14:35:59;98683.66;;;2.75;40.81
25947;BME280;13745;51.470;9.894;2022-12-15T14:38:49;98673.72;;;2.56;40.93
25947;BME280;13745;51.470;9.894;2022-12-15T14:41:45;98659.72;;;2.34;41.04
25947;BME280;13745;51.470;9.894;2022-12-15T14:44:34;98658.84;;;2.19;41.28
25947;BME280;13745;51.470;9.894;2022-12-15T14:47:23;98658.78;;;2.04;41.58
25947;BME280;13745;51.470;9.894;2022-12-15T14:50:10;98656.28;;;1.93;41.69
25947;BME280;13745;51.470;9.894;2022-12-15T14:53:00;98644.47;;;1.79;41.91
25947;BME280;13745;51.470;9.894;2022-12-15T14:55:47;98645.97;;;1.66;42.01
25947;BME280;13745;51.470;9.894;2022-12-15T14:58:34;98648.03;;;1.54;42.18
25947;BME280;13745;51.470;9.894;2022-12-15T15:01:23;98650.25;;;1.31;42.62
25947;BME280;13745;51.470;9.894;2022-12-15T15:04:22;98649.75;;;1.08;43.03
25947;BME280;13745;51.470;9.894;2022-12-15T15:07:15;98652.00;;;0.90;42.98
25947;BME280;13745;51.470;9.894;2022-12-15T15:10:03;98650.00;;;0.76;43.03
25947;BME280;13745;51.470;9.894;2022-12-15T15:12:53;98650.94;;;0.65;42.75
25947;BME280;13745;51.470;9.894;2022-12-15T15:15:39;98645.75;;;0.54;42.91
25947;BME280;13745;51.470;9.894;2022-12-15T15:18:26;98650.66;;;0.41;43.16
25947;BME280;13745;51.470;9.894;2022-12-15T15:21:16;98657.41;;;0.27;43.46